createdAt,value
2023-04-09T00:12:45.425Z,395
2023-04-09T00:32:45.535Z,399
2023-04-09T00:52:45.497Z,398
2023-04-09T01:12:45.510Z,393
2023-04-09T01:32:45.565Z,392
2023-04-09T01:52:45.597Z,389
2023-04-09T02:12:45.662Z,390
2023-04-09T02:32:45.740Z,387
2023-04-09T02:52:45.627Z,390
2023-04-09T03:12:45.778Z,388
2023-04-09T03:32:45.823Z,387
2023-04-09T03:52:45.896Z,387
2023-04-09T04:52:46.025Z,389
2023-04-09T05:12:46.054Z,388
2023-04-09T05:32:46.143Z,390
2023-04-09T05:52:46.171Z,394
2023-04-09T06:12:46.193Z,395
2023-04-09T06:32:54.172Z,404
2023-04-09T06:52:46.294Z,422
2023-04-09T07:12:46.355Z,422
2023-04-09T07:32:46.456Z,415
2023-04-09T08:12:46.469Z,419
2023-04-09T08:32:46.520Z,418
2023-04-09T08:52:46.549Z,423
2023-04-09T09:12:46.619Z,423
2023-04-09T09:32:46.555Z,415
2023-04-09T09:52:46.640Z,417
2023-04-09T10:12:46.690Z,416
2023-04-09T10:32:46.732Z,420
2023-04-09T10:52:46.732Z,410
2023-04-09T11:12:46.683Z,410
2023-04-09T11:32:46.808Z,411
2023-04-09T11:52:46.831Z,406
2023-04-09T12:12:46.857Z,404
2023-04-09T12:32:46.933Z,407
2023-04-09T12:52:46.914Z,410
2023-04-09T13:12:46.957Z,413
2023-04-09T13:32:46.994Z,409
2023-04-09T13:52:46.806Z,405
2023-04-09T14:32:46.867Z,402
2023-04-09T14:52:47.058Z,402
2023-04-09T15:12:47.091Z,402
2023-04-09T15:32:47.136Z,398
2023-04-09T16:12:46.972Z,405
2023-04-09T16:32:47.267Z,405
2023-04-09T16:52:47.224Z,404
2023-04-09T17:12:47.241Z,398
2023-04-09T17:32:47.105Z,395
2023-04-09T17:52:47.326Z,398
2023-04-09T18:52:47.428Z,382
2023-04-09T19:12:47.462Z,378
2023-04-09T19:32:47.482Z,381
2023-04-09T19:52:47.493Z,383
2023-04-09T20:12:47.573Z,382
2023-04-09T20:32:47.643Z,383
2023-04-09T20:52:47.637Z,383
2023-04-09T21:12:47.667Z,385
2023-04-09T21:32:47.768Z,388
2023-04-09T22:32:47.874Z,381
2023-04-09T22:52:47.785Z,380
2023-04-09T23:12:47.917Z,379
2023-04-09T23:32:47.977Z,381
2023-04-09T23:52:47.978Z,382
